createdAt,value
2023-01-13T00:00:16.038Z,99967.75
2023-01-13T00:02:42.996Z,99979.16
2023-01-13T00:05:10.292Z,99989.91
2023-01-13T00:07:40.414Z,99978.53
2023-01-13T00:10:10.074Z,99976.88
2023-01-13T00:12:41.671Z,99924.16
2023-01-13T00:15:09.136Z,99974.13
2023-01-13T00:17:35.750Z,99959.44
2023-01-13T00:20:02.778Z,99921.72
2023-01-13T00:22:29.449Z,99986.94
2023-01-13T00:24:58.225Z,99948.31
2023-01-13T00:27:25.543Z,99973.88
2023-01-13T00:29:52.320Z,99990.44
2023-01-13T00:32:19.026Z,99977.66
2023-01-13T00:34:45.860Z,99975.06
2023-01-13T00:37:14.685Z,99976.72
2023-01-13T00:39:41.881Z,99953.13
2023-01-13T00:42:27.512Z,99972.53
2023-01-13T00:44:54.215Z,99969.25
2023-01-13T00:47:20.787Z,99953.94
2023-01-13T00:49:47.693Z,99961.47
2023-01-13T00:52:14.288Z,99959.66
2023-01-13T00:54:41.047Z,99964.50
2023-01-13T00:57:08.614Z,99981.75
2023-01-13T00:59:35.202Z,99975.09
2023-01-13T01:02:02.074Z,99966.75
2023-01-13T01:04:28.853Z,99912.88
2023-01-13T01:06:55.496Z,99968.03
2023-01-13T01:09:22.265Z,99938.13
2023-01-13T01:11:48.966Z,99938.69
2023-01-13T01:14:15.610Z,99954.00
2023-01-13T01:16:42.528Z,99938.97
2023-01-13T01:19:10.515Z,99953.28
2023-01-13T01:21:37.218Z,99948.97
2023-01-13T01:24:05.106Z,99950.94
2023-01-13T01:26:32.909Z,99980.13
2023-01-13T01:29:02.139Z,99984.28
2023-01-13T01:31:32.193Z,99968.72
2023-01-13T01:34:00.192Z,99979.28
2023-01-13T01:36:29.935Z,99978.44
2023-01-13T01:38:58.583Z,99974.28
2023-01-13T01:41:28.814Z,99974.81
2023-01-13T01:44:40.304Z,99983.72
2023-01-13T01:47:07.869Z,99973.59
2023-01-13T01:49:36.904Z,99977.88
2023-01-13T01:52:21.037Z,99978.44
2023-01-13T01:55:22.538Z,99985.13
2023-01-13T01:57:58.795Z,99973.84
2023-01-13T02:00:28.369Z,99954.97
2023-01-13T02:02:56.134Z,99949.56
2023-01-13T02:05:23.754Z,99962.88
2023-01-13T02:07:54.796Z,99972.59
2023-01-13T02:10:24.210Z,99920.41
2023-01-13T02:12:52.764Z,99961.50
2023-01-13T02:15:46.871Z,99979.28
2023-01-13T02:18:46.138Z,99967.75
2023-01-13T02:21:38.391Z,99966.91
2023-01-13T02:24:53.838Z,99965.50
2023-01-13T02:27:41.620Z,99960.66
2023-01-13T02:30:35.639Z,99955.91
2023-01-13T02:33:27.366Z,99956.78
2023-01-13T02:35:59.852Z,99960.09
2023-01-13T02:38:54.886Z,99941.34
2023-01-13T02:41:49.311Z,99932.97
2023-01-13T02:44:24.318Z,99923.13
2023-01-13T02:47:04.139Z,99935.09
2023-01-13T02:49:43.602Z,99915.91
2023-01-13T02:52:20.339Z,99937.88
2023-01-13T02:54:53.447Z,99929.28
2023-01-13T02:57:22.152Z,99943.44
2023-01-13T02:59:49.399Z,99917.31
2023-01-13T03:02:21.532Z,99926.19
2023-01-13T03:04:57.021Z,99925.63
2023-01-13T03:07:57.593Z,99929.81
2023-01-13T03:10:38.119Z,99927.03
2023-01-13T03:13:20.116Z,99923.13
2023-01-13T03:16:01.413Z,99917.84
2023-01-13T03:18:50.128Z,99913.72
2023-01-13T03:21:32.808Z,99904.25
2023-01-13T03:24:13.803Z,99891.78
2023-01-13T03:26:58.305Z,99880.94
2023-01-13T03:29:31.754Z,99877.59
2023-01-13T03:32:34.858Z,99897.19
2023-01-13T03:35:11.205Z,99902.59
2023-01-13T03:37:42.502Z,99890.41
2023-01-13T03:40:17.501Z,99904.25
2023-01-13T03:43:08.001Z,99883.06
2023-01-13T03:45:38.102Z,99901.22
2023-01-13T03:48:10.946Z,99850.84
2023-01-13T03:50:43.869Z,99910.53
2023-01-13T03:53:16.206Z,99899.56
2023-01-13T03:55:51.752Z,99902.91
2023-01-13T03:58:25.683Z,99899.56
2023-01-13T04:01:00.079Z,99911.22
2023-01-13T04:03:36.497Z,99895.81
2023-01-13T04:06:22.537Z,99893.19
2023-01-13T04:08:55.632Z,99897.75
2023-01-13T04:11:33.612Z,99884.03
2023-01-13T04:14:03.425Z,99887.19
2023-01-13T04:16:30.189Z,99875.94
2023-01-13T04:18:56.937Z,99872.19
2023-01-13T04:21:23.685Z,99865.69
2023-01-13T04:23:51.576Z,99837.63
2023-01-13T04:26:19.920Z,99853.91
2023-01-13T04:28:46.962Z,99875.41
2023-01-13T04:31:13.719Z,99856.66
2023-01-13T04:33:40.748Z,99873.88
2023-01-13T04:36:07.739Z,99863.88
2023-01-13T04:38:34.424Z,99888.72
2023-01-13T04:41:01.534Z,99871.81
2023-01-13T04:43:28.371Z,99876.50
2023-01-13T04:45:55.199Z,99873.16
2023-01-13T04:48:21.925Z,99844.88
2023-01-13T04:50:48.668Z,99863.44
2023-01-13T04:53:15.381Z,99864.44
2023-01-13T04:55:42.318Z,99876.78
2023-01-13T04:58:10.535Z,99882.34
2023-01-13T05:00:37.555Z,99851.25
2023-01-13T05:03:05.114Z,99881.63
2023-01-13T05:05:32.329Z,99848.75
2023-01-13T05:07:59.036Z,99850.69
2023-01-13T05:10:26.675Z,99866.59
2023-01-13T05:13:11.855Z,99870.91
2023-01-13T05:15:59.005Z,99810.53
2023-01-13T05:18:26.777Z,99831.47
2023-01-13T05:20:53.442Z,99844.13
2023-01-13T05:23:38.619Z,99855.63
2023-01-13T05:26:06.003Z,99842.00
2023-01-13T05:28:34.012Z,99824.25
2023-01-13T05:31:01.534Z,99867.56
2023-01-13T05:33:28.329Z,99830.63
2023-01-13T05:35:55.065Z,99862.53
2023-01-13T05:38:21.864Z,99840.72
2023-01-13T05:41:07.393Z,99856.16
2023-01-13T05:43:35.046Z,99860.03
2023-01-13T05:46:05.302Z,99862.53
2023-01-13T05:48:34.942Z,99820.88
2023-01-13T05:51:03.586Z,99849.47
2023-01-13T05:53:30.786Z,99845.84
2023-01-13T05:55:57.982Z,99836.44
2023-01-13T05:58:26.800Z,99861.97
2023-01-13T06:00:54.000Z,99840.72
2023-01-13T06:03:20.658Z,99860.31
2023-01-13T06:05:48.788Z,99827.97
2023-01-13T06:08:15.573Z,99858.94
2023-01-13T06:10:42.217Z,99842.97
2023-01-13T06:13:09.208Z,99841.00
2023-01-13T06:15:36.105Z,99860.03
2023-01-13T06:18:04.747Z,99864.63
2023-01-13T06:20:32.344Z,99853.09
2023-01-13T06:22:59.605Z,99856.69
2023-01-13T06:25:29.118Z,99877.28
2023-01-13T06:27:59.233Z,99863.22
2023-01-13T06:30:29.885Z,99855.72
2023-01-13T06:33:01.895Z,99818.38
2023-01-13T06:35:33.315Z,99838.06
2023-01-13T06:38:03.899Z,99815.34
2023-01-13T06:40:30.598Z,99861.44
2023-01-13T06:43:17.341Z,99840.56
2023-01-13T06:45:47.315Z,99869.34
2023-01-13T06:48:14.476Z,99838.66
2023-01-13T06:50:42.423Z,99860.88
2023-01-13T06:53:09.885Z,99858.91
2023-01-13T06:55:36.990Z,99851.84
2023-01-13T06:58:03.767Z,99843.94
2023-01-13T07:00:32.369Z,99867.25
2023-01-13T07:03:16.532Z,99852.28
2023-01-13T07:05:50.779Z,99862.41
2023-01-13T07:08:17.664Z,99867.13
2023-01-13T07:10:44.559Z,99852.03
2023-01-13T07:13:29.986Z,99855.91
2023-01-13T07:16:02.258Z,99881.88
2023-01-13T07:18:32.037Z,99864.53
2023-01-13T07:21:09.581Z,99869.53
2023-01-13T07:23:39.711Z,99864.97
2023-01-13T07:26:08.289Z,99870.78
2023-01-13T07:28:35.033Z,99853.59
2023-01-13T07:31:02.278Z,99880.38
2023-01-13T07:33:32.960Z,99887.47
2023-01-13T07:36:02.599Z,99890.09
2023-01-13T07:38:30.930Z,99896.50
2023-01-13T07:40:57.783Z,99890.53
2023-01-13T07:43:33.446Z,99894.28
2023-01-13T07:46:03.252Z,99864.03
2023-01-13T07:48:32.001Z,99864.59
2023-01-13T07:51:07.635Z,99908.75
2023-01-13T07:53:35.131Z,99879.84
2023-01-13T07:56:03.679Z,99893.47
2023-01-13T07:58:30.751Z,99860.84
2023-01-13T08:00:58.192Z,99895.13
2023-01-13T08:03:25.343Z,99862.66
2023-01-13T08:05:52.707Z,99899.00
2023-01-13T08:08:19.729Z,99879.88
2023-01-13T08:10:47.617Z,99886.38
2023-01-13T08:13:22.197Z,99899.00
2023-01-13T08:15:52.049Z,99895.41
2023-01-13T08:18:22.148Z,99862.63
2023-01-13T08:20:53.052Z,99904.56
2023-01-13T08:23:21.283Z,99846.41
2023-01-13T08:25:48.612Z,99902.34
2023-01-13T08:28:16.297Z,99914.97
2023-01-13T08:30:43.731Z,99884.03
2023-01-13T08:33:12.015Z,99889.56
2023-01-13T08:35:40.628Z,99919.69
2023-01-13T08:38:08.218Z,99897.88
2023-01-13T08:40:35.665Z,99904.25
2023-01-13T08:43:03.221Z,99907.91
2023-01-13T08:45:30.260Z,99899.56
2023-01-13T08:47:57.480Z,99910.94
2023-01-13T08:50:24.581Z,99913.72
2023-01-13T08:52:51.318Z,99927.63
2023-01-13T08:55:18.120Z,99914.94
2023-01-13T08:57:45.126Z,99933.28
2023-01-13T09:00:13.040Z,99910.38
2023-01-13T09:02:39.845Z,99925.94
2023-01-13T09:05:08.584Z,99934.66
2023-01-13T09:07:37.303Z,99935.38
2023-01-13T09:10:05.865Z,99928.41
2023-01-13T09:12:51.153Z,99939.41
2023-01-13T09:15:18.662Z,99942.31
2023-01-13T09:17:45.976Z,99922.03
2023-01-13T09:20:13.708Z,99957.19
2023-01-13T09:22:41.542Z,99965.38
2023-01-13T09:25:09.075Z,99982.75
2023-01-13T09:27:36.621Z,99990.66
2023-01-13T09:30:03.955Z,99962.47
2023-01-13T09:32:30.783Z,99969.28
2023-01-13T09:35:00.463Z,99985.94
2023-01-13T09:37:38.522Z,99969.97
2023-01-13T09:40:18.365Z,99974.28
2023-01-13T09:43:35.600Z,99987.34
2023-01-13T09:46:31.573Z,99980.69
2023-01-13T09:48:59.863Z,99997.63
2023-01-13T09:51:31.776Z,99987.91
2023-01-13T09:54:27.982Z,99911.50
2023-01-13T09:56:54.728Z,99978.44
2023-01-13T09:59:21.660Z,99950.09
2023-01-13T10:02:00.366Z,99973.19
2023-01-13T10:04:28.050Z,99982.47
2023-01-13T10:07:03.856Z,99984.13
2023-01-13T10:09:36.707Z,99995.41
2023-01-13T10:12:24.556Z,100010.94
2023-01-13T10:14:57.364Z,100000.69
2023-01-13T10:18:02.294Z,100000.38
2023-01-13T10:20:34.433Z,99990.09
2023-01-13T10:23:14.544Z,99997.47
2023-01-13T10:25:47.447Z,100013.72
2023-01-13T10:28:19.448Z,100003.28
2023-01-13T10:30:47.771Z,100030.41
2023-01-13T10:33:21.403Z,100016.38
2023-01-13T10:35:59.535Z,100020.97
2023-01-13T10:38:35.559Z,100033.06
2023-01-13T10:41:06.386Z,100014.44
2023-01-13T10:43:33.088Z,100011.66
2023-01-13T10:46:06.008Z,100031.09
2023-01-13T10:49:00.114Z,100029.56
2023-01-13T10:51:43.245Z,100017.34
2023-01-13T10:54:13.246Z,100024.97
2023-01-13T10:56:42.277Z,100016.94
2023-01-13T10:59:29.961Z,100037.91
2023-01-13T11:02:16.247Z,100032.34
2023-01-13T11:04:54.526Z,100037.34
2023-01-13T11:07:35.810Z,100017.91
2023-01-13T11:10:22.999Z,100043.78
2023-01-13T11:13:08.723Z,100038.63
2023-01-13T11:15:54.139Z,100053.22
2023-01-13T11:18:34.573Z,100054.88
2023-01-13T11:21:06.954Z,100051.41
2023-01-13T11:23:50.197Z,99988.72
2023-01-13T11:26:27.357Z,100061.31
2023-01-13T11:29:15.061Z,100057.53
2023-01-13T11:32:00.739Z,100045.44
2023-01-13T11:34:32.589Z,100073.38
2023-01-13T11:37:02.246Z,100061.13
2023-01-13T11:39:47.772Z,100035.97
2023-01-13T11:42:27.039Z,100064.34
2023-01-13T11:45:06.057Z,100067.81
2023-01-13T11:47:35.198Z,100067.81
2023-01-13T11:50:02.582Z,100075.03
2023-01-13T11:53:07.777Z,100069.19
2023-01-13T11:56:06.739Z,100084.66
2023-01-13T11:58:51.464Z,100082.69
2023-01-13T12:01:43.798Z,100086.84
2023-01-13T12:04:23.745Z,100092.00
2023-01-13T12:07:22.149Z,100098.13
2023-01-13T12:10:03.663Z,100079.63
2023-01-13T12:12:51.639Z,100101.88
2023-01-13T12:15:21.602Z,100112.16
2023-01-13T12:18:25.421Z,100091.00
2023-01-13T12:21:01.624Z,100117.44
2023-01-13T12:23:35.754Z,100080.88
2023-01-13T12:26:10.654Z,100089.06
2023-01-13T12:28:54.948Z,100088.50
2023-01-13T12:31:23.529Z,100078.94
2023-01-13T12:33:59.083Z,100094.06
2023-01-13T12:36:40.331Z,100097.97
2023-01-13T12:39:24.095Z,100099.78
2023-01-13T12:42:36.205Z,100109.38
2023-01-13T12:45:12.506Z,100121.88
2023-01-13T12:47:45.715Z,100094.66
2023-01-13T12:50:27.401Z,100131.63
2023-01-13T12:52:56.586Z,100122.16
2023-01-13T12:55:33.406Z,100093.78
2023-01-13T12:58:15.144Z,100129.38
2023-01-13T13:00:41.857Z,100134.38
2023-01-13T13:03:11.150Z,100134.13
2023-01-13T13:05:59.053Z,100142.72
2023-01-13T13:08:32.400Z,100152.44
2023-01-13T13:11:35.061Z,100138.84
2023-01-13T13:14:13.626Z,100143.59
2023-01-13T13:16:49.564Z,100153.59
2023-01-13T13:19:20.175Z,100156.06
2023-01-13T13:22:05.494Z,100174.75
2023-01-13T13:24:33.827Z,100157.22
2023-01-13T13:27:22.567Z,100166.09
2023-01-13T13:30:13.391Z,100174.75
2023-01-13T13:32:52.055Z,100164.72
2023-01-13T13:35:29.105Z,100175.13
2023-01-13T13:38:20.626Z,100179.72
2023-01-13T13:41:06.855Z,100180.69
2023-01-13T13:43:58.924Z,100167.78
2023-01-13T13:46:49.547Z,100186.69
2023-01-13T13:49:21.934Z,100196.84
2023-01-13T13:51:49.458Z,100201.44
2023-01-13T13:54:20.085Z,100216.59
2023-01-13T13:56:48.925Z,100212.28
2023-01-13T13:59:20.953Z,100221.47
2023-01-13T14:02:00.767Z,100235.69
2023-01-13T14:04:32.968Z,100225.50
2023-01-13T14:07:05.110Z,100220.50
2023-01-13T14:09:44.179Z,100239.44
2023-01-13T14:12:20.069Z,100242.09
2023-01-13T14:14:48.226Z,100222.16
2023-01-13T14:17:27.405Z,100234.69
2023-01-13T14:20:00.406Z,100260.59
2023-01-13T14:22:27.247Z,100243.19
2023-01-13T14:24:58.249Z,100258.91
2023-01-13T14:27:27.775Z,100254.34
2023-01-13T14:29:58.146Z,100259.88
2023-01-13T14:32:35.216Z,100261.28
2023-01-13T14:35:02.083Z,100288.00
2023-01-13T14:37:28.660Z,100261.81
2023-01-13T14:39:55.831Z,100284.91
2023-01-13T14:42:22.754Z,100256.25
2023-01-13T14:44:52.564Z,100287.16
2023-01-13T14:47:20.022Z,100298.03
2023-01-13T14:50:02.264Z,100290.91
2023-01-13T14:52:48.550Z,100290.22
2023-01-13T14:55:21.278Z,100308.59
2023-01-13T14:57:49.763Z,100278.34
2023-01-13T15:00:16.830Z,100311.50
2023-01-13T15:02:59.132Z,100320.28
2023-01-13T15:05:25.940Z,100344.19
2023-01-13T15:07:55.836Z,100337.78
2023-01-13T15:10:27.673Z,100374.78
2023-01-13T15:12:56.484Z,100316.59
2023-01-13T15:15:39.475Z,100326.31
2023-01-13T15:18:13.293Z,100377.84
2023-01-13T15:20:41.867Z,100336.00
2023-01-13T15:23:09.331Z,100392.69
2023-01-13T15:25:39.360Z,100386.66
2023-01-13T15:28:07.711Z,100394.19
2023-01-13T15:30:34.568Z,100359.34
2023-01-13T15:33:01.464Z,100375.53
2023-01-13T15:35:29.172Z,100371.84
2023-01-13T15:37:57.253Z,100398.19
2023-01-13T15:40:32.579Z,100362.88
2023-01-13T15:43:18.166Z,100369.50
2023-01-13T15:46:04.795Z,100403.09
2023-01-13T15:48:33.001Z,100394.25
2023-01-13T15:51:00.903Z,100413.84
2023-01-13T15:53:29.011Z,100396.66
2023-01-13T15:55:57.975Z,100408.50
2023-01-13T15:58:29.608Z,100418.00
2023-01-13T16:00:56.672Z,100416.91
2023-01-13T16:03:23.537Z,100432.22
2023-01-13T16:05:50.275Z,100399.66
2023-01-13T16:08:22.853Z,100418.34
2023-01-13T16:10:50.740Z,100456.00
2023-01-13T16:13:18.213Z,100434.34
2023-01-13T16:15:48.564Z,100441.28
2023-01-13T16:18:23.838Z,100455.19
2023-01-13T16:20:53.970Z,100465.03
2023-01-13T16:23:22.597Z,100473.81
2023-01-13T16:25:50.294Z,100482.13
2023-01-13T16:28:26.793Z,100484.78
2023-01-13T16:30:54.050Z,100488.34
2023-01-13T16:33:20.862Z,100469.66
2023-01-13T16:36:10.428Z,100502.28
2023-01-13T16:38:34.609Z,100460.25
2023-01-13T16:41:01.759Z,100492.59
2023-01-13T16:43:28.399Z,100517.66
2023-01-13T16:45:55.168Z,100519.31
2023-01-13T16:48:22.907Z,100441.59
2023-01-13T16:50:49.630Z,100525.00
2023-01-13T16:53:16.575Z,100520.09
2023-01-13T16:55:43.787Z,100527.50
2023-01-13T16:58:18.816Z,100541.06
2023-01-13T17:00:49.089Z,100553.88
2023-01-13T17:03:16.652Z,100563.38
2023-01-13T17:05:46.807Z,100524.22
2023-01-13T17:08:17.428Z,100564.22
2023-01-13T17:10:44.827Z,100569.25
2023-01-13T17:13:16.409Z,100541.22
2023-01-13T17:15:44.642Z,100555.13
2023-01-13T17:18:13.431Z,100569.28
2023-01-13T17:20:40.851Z,100597.06
2023-01-13T17:23:07.985Z,100590.63
2023-01-13T17:25:34.645Z,100603.63
2023-01-13T17:28:01.390Z,100606.69
2023-01-13T17:30:28.263Z,100583.91
2023-01-13T17:32:54.961Z,100589.19
2023-01-13T17:35:24.853Z,100627.53
2023-01-13T17:37:53.180Z,100633.28
2023-01-13T17:40:20.507Z,100566.50
2023-01-13T17:42:47.224Z,100624.13
2023-01-13T17:45:14.492Z,100608.72
2023-01-13T17:47:41.148Z,100626.84
2023-01-13T17:50:08.460Z,100607.66
2023-01-13T17:52:35.457Z,100627.09
2023-01-13T17:55:03.136Z,100617.03
2023-01-13T17:57:29.818Z,100627.34
2023-01-13T17:59:58.754Z,100619.91
2023-01-13T18:02:26.413Z,100641.00
2023-01-13T18:04:53.195Z,100609.09
2023-01-13T18:07:20.380Z,100647.03
2023-01-13T18:09:47.143Z,100645.56
2023-01-13T18:12:14.618Z,100609.38
2023-01-13T18:14:41.735Z,100646.53
2023-01-13T18:17:08.559Z,100660.22
2023-01-13T18:19:53.816Z,100666.09
2023-01-13T18:22:39.238Z,100650.84
2023-01-13T18:25:25.318Z,100604.00
2023-01-13T18:27:52.163Z,100692.84
2023-01-13T18:30:19.088Z,100695.13
2023-01-13T18:32:45.904Z,100690.69
2023-01-13T18:35:12.664Z,100653.38
2023-01-13T18:37:42.217Z,100681.31
2023-01-13T18:40:11.755Z,100662.16
2023-01-13T18:42:59.124Z,100705.19
2023-01-13T18:45:31.037Z,100697.03
2023-01-13T18:48:00.208Z,100685.19
2023-01-13T18:50:28.250Z,100720.19
2023-01-13T18:52:55.675Z,100711.09
2023-01-13T18:55:22.862Z,100703.41
2023-01-13T18:57:50.436Z,100733.88
2023-01-13T19:00:20.130Z,100717.78
2023-01-13T19:02:47.439Z,100709.53
2023-01-13T19:05:14.678Z,100735.78
2023-01-13T19:07:43.513Z,100752.84
2023-01-13T19:10:13.055Z,100744.31
2023-01-13T19:12:39.875Z,100733.91
2023-01-13T19:15:07.379Z,100755.00
2023-01-13T19:17:35.193Z,100744.59
2023-01-13T19:20:04.056Z,100776.16
2023-01-13T19:22:33.767Z,100784.34
2023-01-13T19:25:01.842Z,100784.59
2023-01-13T19:27:28.854Z,100794.44
2023-01-13T19:30:01.486Z,100784.13
2023-01-13T19:32:30.942Z,100764.44
2023-01-13T19:34:59.541Z,100806.72
2023-01-13T19:37:30.956Z,100809.81
2023-01-13T19:39:59.138Z,100815.25
2023-01-13T19:42:44.957Z,100790.25
2023-01-13T19:45:27.840Z,100800.22
2023-01-13T19:47:56.356Z,100813.22
2023-01-13T19:50:24.251Z,100814.50
2023-01-13T19:52:51.247Z,100810.66
2023-01-13T19:55:19.959Z,100790.03
2023-01-13T19:57:47.120Z,100831.34
2023-01-13T20:00:18.351Z,100800.94
2023-01-13T20:02:49.451Z,100825.44
2023-01-13T20:05:21.818Z,100833.38
2023-01-13T20:07:50.148Z,100849.69
2023-01-13T20:10:19.091Z,100870.09
2023-01-13T20:12:45.883Z,100884.28
2023-01-13T20:15:12.694Z,100848.47
2023-01-13T20:17:41.472Z,100865.41
2023-01-13T20:20:10.003Z,100845.06
2023-01-13T20:22:38.402Z,100920.59
2023-01-13T20:25:05.628Z,100926.22
2023-01-13T20:27:32.480Z,100931.25
2023-01-13T20:29:59.337Z,100918.03
2023-01-13T20:32:26.153Z,100883.28
2023-01-13T20:34:52.856Z,100890.56
2023-01-13T20:37:19.509Z,100918.81
2023-01-13T20:39:47.007Z,100897.59
2023-01-13T20:42:29.205Z,100923.53
2023-01-13T20:45:00.844Z,100917.22
2023-01-13T20:47:29.513Z,100911.06
2023-01-13T20:49:56.685Z,100934.56
2023-01-13T20:52:23.585Z,100934.28
2023-01-13T20:54:50.345Z,100947.69
2023-01-13T20:57:17.359Z,100952.97
2023-01-13T20:59:44.332Z,100942.88
2023-01-13T21:02:13.625Z,100912.78
2023-01-13T21:04:41.262Z,100944.78
2023-01-13T21:07:08.670Z,100959.09
2023-01-13T21:09:35.892Z,100937.81
2023-01-13T21:12:21.473Z,100932.75
2023-01-13T21:15:06.786Z,100963.91
2023-01-13T21:17:52.364Z,100941.63
2023-01-13T21:20:19.311Z,100975.53
2023-01-13T21:22:47.844Z,100973.63
2023-01-13T21:25:16.657Z,100982.56
2023-01-13T21:27:44.128Z,100983.50
2023-01-13T21:30:15.527Z,100970.88
2023-01-13T21:32:44.459Z,100988.78
2023-01-13T21:35:12.978Z,101003.09
2023-01-13T21:37:41.430Z,101002.47
2023-01-13T21:40:10.327Z,101012.06
2023-01-13T21:42:55.680Z,101001.97
2023-01-13T21:45:41.305Z,101008.00
2023-01-13T21:48:08.072Z,100994.72
2023-01-13T21:50:36.403Z,101031.19
2023-01-13T21:53:03.595Z,101000.63
2023-01-13T21:55:31.329Z,101012.66
2023-01-13T21:58:14.447Z,101019.19
2023-01-13T22:00:43.611Z,101034.16
2023-01-13T22:03:11.772Z,100994.34
2023-01-13T22:05:38.977Z,101007.09
2023-01-13T22:08:06.097Z,101034.47
2023-01-13T22:10:32.975Z,101050.84
2023-01-13T22:13:22.650Z,101043.88
2023-01-13T22:15:49.679Z,101041.44
2023-01-13T22:18:18.336Z,101053.38
2023-01-13T22:20:45.726Z,101057.16
2023-01-13T22:23:12.693Z,101044.06
2023-01-13T22:25:39.410Z,101055.81
2023-01-13T22:28:09.192Z,101048.34
2023-01-13T22:30:36.029Z,101055.69
2023-01-13T22:33:02.986Z,101069.44
2023-01-13T22:35:30.012Z,101047.91
2023-01-13T22:37:56.908Z,101047.59
2023-01-13T22:40:23.642Z,101070.06
2023-01-13T22:42:50.390Z,101063.72
2023-01-13T22:45:17.232Z,101070.50
2023-01-13T22:47:44.011Z,101065.22
2023-01-13T22:50:12.677Z,101082.06
2023-01-13T22:52:39.546Z,101078.47
2023-01-13T22:55:06.989Z,101073.63
2023-01-13T22:57:47.263Z,101090.53
2023-01-13T23:00:23.091Z,101083.56
2023-01-13T23:02:49.744Z,101077.44
2023-01-13T23:05:16.509Z,101090.28
2023-01-13T23:07:43.098Z,101079.53
2023-01-13T23:10:10.502Z,101024.31
2023-01-13T23:12:37.247Z,101096.63
2023-01-13T23:15:04.445Z,101094.19
2023-01-13T23:17:31.591Z,101096.63
2023-01-13T23:19:58.540Z,101093.03
2023-01-13T23:22:25.225Z,101091.53
2023-01-13T23:24:52.113Z,101035.81
2023-01-13T23:27:18.901Z,101096.09
2023-01-13T23:29:45.591Z,101061.22
2023-01-13T23:32:12.353Z,101090.09
2023-01-13T23:34:39.049Z,101071.50
2023-01-13T23:37:05.770Z,101068.03
2023-01-13T23:39:32.512Z,101093.66
2023-01-13T23:41:59.595Z,101058.25
2023-01-13T23:44:26.335Z,101089.66
2023-01-13T23:46:53.194Z,101091.47
2023-01-13T23:49:20.556Z,101100.13
2023-01-13T23:51:50.905Z,101089.78
2023-01-13T23:54:18.331Z,101074.81
2023-01-13T23:56:45.264Z,101101.06
2023-01-13T23:59:11.986Z,101094.31
